sensor_id;sensor_type;location;lat;lon;timestamp;pressure;altitude;pressure_sealevel;temperature;humidity
55470;BME280;41334;47.872;16.384;2022-08-19T00:02:35;98309.47;;;20.59;43.02
55470;BME280;41334;47.872;16.384;2022-08-19T00:05:37;98307.28;;;20.61;43.31
55470;BME280;41334;47.872;16.384;2022-08-19T00:08:39;98294.97;;;20.68;43.05
55470;BME280;41334;47.872;16.384;2022-08-19T00:11:44;98303.84;;;20.84;42.71
55470;BME280;41334;47.872;16.384;2022-08-19T00:14:47;98305.19;;;20.92;42.39
55470;BME280;41334;47.872;16.384;2022-08-19T00:17:49;98299.75;;;20.92;42.49
55470;BME280;41334;47.872;16.384;2022-08-19T00:20:51;98298.38;;;20.89;42.30
55470;BME280;41334;47.872;16.384;2022-08-19T00:23:54;98287.81;;;20.83;42.75
55470;BME280;41334;47.872;16.384;2022-08-19T00:26:59;98291.41;;;20.73;42.32
55470;BME280;41334;47.872;16.384;2022-08-19T00:30:23;98292.00;;;20.65;42.29
55470;BME280;41334;47.872;16.384;2022-08-19T00:33:25;98282.53;;;20.57;43.14
55470;BME280;41334;47.872;16.384;2022-08-19T00:36:31;98274.13;;;20.49;43.15
55470;BME280;41334;47.872;16.384;2022-08-19T00:39:34;98284.22;;;20.43;43.04
55470;BME280;41334;47.872;16.384;2022-08-19T00:42:36;98290.50;;;20.38;43.16
55470;BME280;41334;47.872;16.384;2022-08-19T00:45:40;98285.34;;;20.42;43.42
55470;BME280;41334;47.872;16.384;2022-08-19T00:48:45;98277.69;;;20.44;43.18
55470;BME280;41334;47.872;16.384;2022-08-19T00:51:50;98276.66;;;20.40;43.52
55470;BME280;41334;47.872;16.384;2022-08-19T00:54:53;98281.81;;;20.36;43.48
55470;BME280;41334;47.872;16.384;2022-08-19T00:57:59;98283.16;;;20.34;43.64
55470;BME280;41334;47.872;16.384;2022-08-19T01:01:03;98284.00;;;20.29;43.76
55470;BME280;41334;47.872;16.384;2022-08-19T01:04:05;98277.53;;;20.20;44.11
55470;BME280;41334;47.872;16.384;2022-08-19T01:07:07;98275.94;;;20.14;44.41
55470;BME280;41334;47.872;16.384;2022-08-19T01:10:18;98274.28;;;20.08;44.88
55470;BME280;41334;47.872;16.384;2022-08-19T01:13:24;98282.22;;;19.99;44.67
55470;BME280;41334;47.872;16.384;2022-08-19T01:16:28;98292.84;;;19.96;44.79
55470;BME280;41334;47.872;16.384;2022-08-19T01:19:37;98293.66;;;19.91;45.15
55470;BME280;41334;47.872;16.384;2022-08-19T01:22:48;98293.41;;;19.87;44.86
55470;BME280;41334;47.872;16.384;2022-08-19T01:25:52;98280.38;;;19.84;44.98
55470;BME280;41334;47.872;16.384;2022-08-19T01:28:57;98282.81;;;19.81;45.28
55470;BME280;41334;47.872;16.384;2022-08-19T01:32:01;98293.41;;;19.82;45.16
55470;BME280;41334;47.872;16.384;2022-08-19T01:35:04;98296.97;;;19.83;45.27
55470;BME280;41334;47.872;16.384;2022-08-19T01:38:08;98308.91;;;19.87;45.00
55470;BME280;41334;47.872;16.384;2022-08-19T01:41:12;98297.50;;;19.90;44.84
55470;BME280;41334;47.872;16.384;2022-08-19T01:44:15;98279.25;;;19.90;44.69
55470;BME280;41334;47.872;16.384;2022-08-19T01:47:19;98256.13;;;19.93;44.83
55470;BME280;41334;47.872;16.384;2022-08-19T01:50:21;98269.47;;;19.95;44.78
55470;BME280;41334;47.872;16.384;2022-08-19T01:53:24;98296.66;;;20.00;44.53
55470;BME280;41334;47.872;16.384;2022-08-19T01:56:34;98293.38;;;19.98;44.46
55470;BME280;41334;47.872;16.384;2022-08-19T01:59:36;98287.41;;;19.96;44.63
55470;BME280;41334;47.872;16.384;2022-08-19T02:02:38;98293.16;;;19.89;45.05
55470;BME280;41334;47.872;16.384;2022-08-19T02:05:44;98308.66;;;19.88;45.14
55470;BME280;41334;47.872;16.384;2022-08-19T02:08:47;98296.69;;;19.84;44.83
55470;BME280;41334;47.872;16.384;2022-08-19T02:11:51;98290.44;;;19.84;44.92
55470;BME280;41334;47.872;16.384;2022-08-19T02:14:53;98279.31;;;19.75;45.43
55470;BME280;41334;47.872;16.384;2022-08-19T02:17:55;98275.25;;;19.73;45.27
55470;BME280;41334;47.872;16.384;2022-08-19T02:20:56;98289.69;;;19.63;45.73
55470;BME280;41334;47.872;16.384;2022-08-19T02:23:58;98295.09;;;19.58;46.09
55470;BME280;41334;47.872;16.384;2022-08-19T02:27:00;98287.75;;;19.58;46.16
55470;BME280;41334;47.872;16.384;2022-08-19T02:30:04;98283.94;;;19.54;46.16
55470;BME280;41334;47.872;16.384;2022-08-19T02:33:06;98270.91;;;19.51;45.77
55470;BME280;41334;47.872;16.384;2022-08-19T02:36:09;98254.59;;;19.51;46.10
55470;BME280;41334;47.872;16.384;2022-08-19T02:39:11;98254.59;;;19.51;45.99
55470;BME280;41334;47.872;16.384;2022-08-19T02:42:13;98269.00;;;19.52;45.37
55470;BME280;41334;47.872;16.384;2022-08-19T02:45:15;98267.94;;;19.48;45.97
55470;BME280;41334;47.872;16.384;2022-08-19T02:48:21;98276.63;;;19.39;46.75
55470;BME280;41334;47.872;16.384;2022-08-19T02:51:26;98272.81;;;19.30;47.06
55470;BME280;41334;47.872;16.384;2022-08-19T02:54:29;98279.06;;;19.26;47.88
55470;BME280;41334;47.872;16.384;2022-08-19T02:57:31;98285.06;;;19.23;48.34
55470;BME280;41334;47.872;16.384;2022-08-19T03:00:33;98277.19;;;19.16;48.30
55470;BME280;41334;47.872;16.384;2022-08-19T03:03:42;98285.06;;;19.07;48.79
55470;BME280;41334;47.872;16.384;2022-08-19T03:06:46;98295.94;;;19.02;48.48
55470;BME280;41334;47.872;16.384;2022-08-19T03:09:48;98301.66;;;19.01;48.06
55470;BME280;41334;47.872;16.384;2022-08-19T03:12:49;98294.56;;;19.00;47.44
55470;BME280;41334;47.872;16.384;2022-08-19T03:15:51;98295.66;;;18.99;47.30
55470;BME280;41334;47.872;16.384;2022-08-19T03:18:55;98316.28;;;18.95;47.13
55470;BME280;41334;47.872;16.384;2022-08-19T03:21:57;98325.50;;;18.88;48.49
55470;BME280;41334;47.872;16.384;2022-08-19T03:25:00;98331.94;;;18.67;49.89
55470;BME280;41334;47.872;16.384;2022-08-19T03:28:01;98334.63;;;18.52;49.63
55470;BME280;41334;47.872;16.384;2022-08-19T03:31:08;98349.81;;;18.58;48.64
55470;BME280;41334;47.872;16.384;2022-08-19T03:34:33;98347.09;;;18.53;49.47
55470;BME280;41334;47.872;16.384;2022-08-19T03:37:35;98350.59;;;18.48;49.88
55470;BME280;41334;47.872;16.384;2022-08-19T03:40:41;98355.75;;;18.45;49.30
55470;BME280;41334;47.872;16.384;2022-08-19T03:43:45;98354.69;;;18.46;48.79
55470;BME280;41334;47.872;16.384;2022-08-19T03:46:53;98344.34;;;18.43;49.54
55470;BME280;41334;47.872;16.384;2022-08-19T03:49:56;98347.59;;;18.40;50.01
55470;BME280;41334;47.872;16.384;2022-08-19T03:52:58;98350.03;;;18.36;50.59
55470;BME280;41334;47.872;16.384;2022-08-19T03:56:00;98338.91;;;18.38;49.94
55470;BME280;41334;47.872;16.384;2022-08-19T03:59:03;98344.31;;;18.38;49.85
55470;BME280;41334;47.872;16.384;2022-08-19T04:02:10;98347.00;;;18.32;50.70
55470;BME280;41334;47.872;16.384;2022-08-19T04:05:12;98360.09;;;18.41;50.52
55470;BME280;41334;47.872;16.384;2022-08-19T04:08:15;98368.53;;;18.49;49.66
55470;BME280;41334;47.872;16.384;2022-08-19T04:11:23;98369.38;;;18.60;49.68
55470;BME280;41334;47.872;16.384;2022-08-19T04:14:44;98365.91;;;18.70;49.52
55470;BME280;41334;47.872;16.384;2022-08-19T04:17:46;98360.75;;;18.78;49.27
55470;BME280;41334;47.872;16.384;2022-08-19T04:20:48;98357.00;;;18.90;49.10
55470;BME280;41334;47.872;16.384;2022-08-19T04:23:50;98356.47;;;18.98;48.39
55470;BME280;41334;47.872;16.384;2022-08-19T04:26:52;98366.53;;;19.07;48.75
55470;BME280;41334;47.872;16.384;2022-08-19T04:29:54;98375.00;;;19.16;48.30
55470;BME280;41334;47.872;16.384;2022-08-19T04:32:56;98382.28;;;19.21;48.28
55470;BME280;41334;47.872;16.384;2022-08-19T04:35:58;98380.16;;;19.33;48.29
55470;BME280;41334;47.872;16.384;2022-08-19T04:39:03;98379.34;;;19.32;47.89
55470;BME280;41334;47.872;16.384;2022-08-19T04:42:06;98381.50;;;19.46;48.10
55470;BME280;41334;47.872;16.384;2022-08-19T04:45:31;98392.69;;;19.64;47.77
55470;BME280;41334;47.872;16.384;2022-08-19T04:48:44;98392.69;;;19.75;47.35
55470;BME280;41334;47.872;16.384;2022-08-19T04:51:52;98407.09;;;19.70;47.06
55470;BME280;41334;47.872;16.384;2022-08-19T04:54:55;98407.38;;;19.63;47.70
55470;BME280;41334;47.872;16.384;2022-08-19T04:57:57;98409.28;;;19.73;47.38
55470;BME280;41334;47.872;16.384;2022-08-19T05:01:00;98408.16;;;19.54;48.36
55470;BME280;41334;47.872;16.384;2022-08-19T05:04:05;98411.97;;;19.53;48.51
55470;BME280;41334;47.872;16.384;2022-08-19T05:07:08;98408.16;;;19.59;48.04
55470;BME280;41334;47.872;16.384;2022-08-19T05:10:09;98414.69;;;19.58;48.66
55470;BME280;41334;47.872;16.384;2022-08-19T05:13:11;98410.06;;;19.53;48.51
55470;BME280;41334;47.872;16.384;2022-08-19T05:16:15;98419.03;;;19.59;48.29
55470;BME280;41334;47.872;16.384;2022-08-19T05:19:17;98429.94;;;19.64;48.17
55470;BME280;41334;47.872;16.384;2022-08-19T05:22:37;98438.09;;;19.64;48.47
55470;BME280;41334;47.872;16.384;2022-08-19T05:25:40;98449.19;;;19.57;48.73
55470;BME280;41334;47.872;16.384;2022-08-19T05:28:42;98463.03;;;19.56;48.03
55470;BME280;41334;47.872;16.384;2022-08-19T05:31:44;98459.03;;;19.63;47.56
55470;BME280;41334;47.872;16.384;2022-08-19T05:34:46;98459.28;;;19.77;48.39
55470;BME280;41334;47.872;16.384;2022-08-19T05:37:48;98464.19;;;19.90;48.77
55470;BME280;41334;47.872;16.384;2022-08-19T05:40:57;98472.63;;;19.94;48.03
55470;BME280;41334;47.872;16.384;2022-08-19T05:44:02;98468.81;;;20.00;48.31
55470;BME280;41334;47.872;16.384;2022-08-19T05:47:06;98478.59;;;20.01;47.83
55470;BME280;41334;47.872;16.384;2022-08-19T05:50:09;98488.13;;;20.04;48.90
55470;BME280;41334;47.872;16.384;2022-08-19T05:53:12;98502.25;;;20.21;49.04
55470;BME280;41334;47.872;16.384;2022-08-19T05:56:17;98505.25;;;20.45;47.20
55470;BME280;41334;47.872;16.384;2022-08-19T05:59:20;98519.13;;;20.38;47.46
55470;BME280;41334;47.872;16.384;2022-08-19T06:02:28;98524.81;;;20.47;48.09
55470;BME280;41334;47.872;16.384;2022-08-19T06:05:32;98527.75;;;20.81;47.09
55470;BME280;41334;47.872;16.384;2022-08-19T06:08:47;98533.19;;;20.86;46.46
55470;BME280;41334;47.872;16.384;2022-08-19T06:11:54;98533.38;;;21.00;46.62
55470;BME280;41334;47.872;16.384;2022-08-19T06:14:56;98526.56;;;21.13;46.30
55470;BME280;41334;47.872;16.384;2022-08-19T06:18:02;98535.28;;;21.10;47.53
55470;BME280;41334;47.872;16.384;2022-08-19T06:21:05;98532.75;;;21.29;46.82
55470;BME280;41334;47.872;16.384;2022-08-19T06:24:09;98544.88;;;21.52;47.49
55470;BME280;41334;47.872;16.384;2022-08-19T06:27:11;98558.38;;;21.28;48.39
55470;BME280;41334;47.872;16.384;2022-08-19T06:30:13;98549.63;;;21.36;48.00
55470;BME280;41334;47.872;16.384;2022-08-19T06:33:15;98552.13;;;21.71;48.55
55470;BME280;41334;47.872;16.384;2022-08-19T06:36:27;98546.44;;;21.63;49.21
55470;BME280;41334;47.872;16.384;2022-08-19T06:39:37;98545.88;;;21.71;49.61
55470;BME280;41334;47.872;16.384;2022-08-19T06:42:40;98546.88;;;21.90;48.96
55470;BME280;41334;47.872;16.384;2022-08-19T06:45:55;98552.50;;;21.99;49.28
55470;BME280;41334;47.872;16.384;2022-08-19T06:49:00;98543.34;;;22.19;47.43
55470;BME280;41334;47.872;16.384;2022-08-19T06:52:02;98550.59;;;22.68;47.86
55470;BME280;41334;47.872;16.384;2022-08-19T06:55:05;98545.59;;;22.99;46.71
55470;BME280;41334;47.872;16.384;2022-08-19T06:58:07;98545.66;;;23.18;46.13
55470;BME280;41334;47.872;16.384;2022-08-19T07:01:10;98536.38;;;23.19;45.66
55470;BME280;41334;47.872;16.384;2022-08-19T07:04:14;98522.41;;;23.20;45.97
55470;BME280;41334;47.872;16.384;2022-08-19T07:07:17;98524.50;;;23.47;44.70
55470;BME280;41334;47.872;16.384;2022-08-19T07:10:22;98526.78;;;23.40;45.15
55470;BME280;41334;47.872;16.384;2022-08-19T07:13:26;98515.25;;;23.43;45.11
55470;BME280;41334;47.872;16.384;2022-08-19T07:16:28;98515.56;;;23.80;42.82
55470;BME280;41334;47.872;16.384;2022-08-19T07:19:30;98512.34;;;24.10;43.27
55470;BME280;41334;47.872;16.384;2022-08-19T07:22:34;98512.47;;;24.51;42.08
55470;BME280;41334;47.872;16.384;2022-08-19T07:25:37;98506.00;;;24.75;41.25
55470;BME280;41334;47.872;16.384;2022-08-19T07:28:42;98495.03;;;24.75;41.91
55470;BME280;41334;47.872;16.384;2022-08-19T07:31:54;98486.63;;;24.99;40.93
55470;BME280;41334;47.872;16.384;2022-08-19T07:35:01;98469.84;;;25.28;40.68
55470;BME280;41334;47.872;16.384;2022-08-19T07:38:04;98466.59;;;25.26;42.42
55470;BME280;41334;47.872;16.384;2022-08-19T07:41:08;98452.59;;;25.50;41.62
55470;BME280;41334;47.872;16.384;2022-08-19T07:44:11;98448.47;;;25.75;40.95
55470;BME280;41334;47.872;16.384;2022-08-19T07:47:13;98460.13;;;25.44;40.73
55470;BME280;41334;47.872;16.384;2022-08-19T07:50:37;98459.00;;;25.45;39.64
55470;BME280;41334;47.872;16.384;2022-08-19T07:53:39;98475.25;;;25.55;40.00
55470;BME280;41334;47.872;16.384;2022-08-19T07:56:41;98470.91;;;25.41;40.83
55470;BME280;41334;47.872;16.384;2022-08-19T07:59:43;98474.22;;;25.51;40.26
55470;BME280;41334;47.872;16.384;2022-08-19T08:02:44;98485.94;;;25.79;40.28
55470;BME280;41334;47.872;16.384;2022-08-19T08:05:47;98489.63;;;25.97;39.10
55470;BME280;41334;47.872;16.384;2022-08-19T08:09:37;98506.59;;;25.99;39.05
55470;BME280;41334;47.872;16.384;2022-08-19T08:12:40;98498.81;;;26.15;38.13
55470;BME280;41334;47.872;16.384;2022-08-19T08:15:42;98513.78;;;26.63;37.52
55470;BME280;41334;47.872;16.384;2022-08-19T08:18:46;98525.31;;;27.13;37.05
55470;BME280;41334;47.872;16.384;2022-08-19T08:21:56;98524.19;;;27.14;37.27
55470;BME280;41334;47.872;16.384;2022-08-19T08:25:03;98523.78;;;27.38;38.13
55470;BME280;41334;47.872;16.384;2022-08-19T08:28:07;98537.88;;;27.62;37.65
55470;BME280;41334;47.872;16.384;2022-08-19T08:31:18;98544.38;;;27.67;36.60
55470;BME280;41334;47.872;16.384;2022-08-19T08:34:20;98535.47;;;28.22;35.46
55470;BME280;41334;47.872;16.384;2022-08-19T08:37:22;98549.72;;;27.80;36.11
55470;BME280;41334;47.872;16.384;2022-08-19T08:40:52;98546.50;;;27.87;34.23
55470;BME280;41334;47.872;16.384;2022-08-19T08:43:57;98546.97;;;28.15;33.42
55470;BME280;41334;47.872;16.384;2022-08-19T08:47:04;98542.78;;;28.00;34.16
55470;BME280;41334;47.872;16.384;2022-08-19T08:50:17;98547.47;;;28.26;34.60
55470;BME280;41334;47.872;16.384;2022-08-19T08:53:21;98542.13;;;28.85;32.05
55470;BME280;41334;47.872;16.384;2022-08-19T08:56:32;98525.13;;;29.12;32.11
55470;BME280;41334;47.872;16.384;2022-08-19T08:59:36;98511.72;;;29.32;32.54
55470;BME280;41334;47.872;16.384;2022-08-19T09:02:40;98512.44;;;29.71;31.58
55470;BME280;41334;47.872;16.384;2022-08-19T09:06:06;98507.38;;;29.52;31.67
55470;BME280;41334;47.872;16.384;2022-08-19T09:12:53;98479.53;;;29.36;31.34
55470;BME280;41334;47.872;16.384;2022-08-19T09:16:03;98472.13;;;29.28;31.36
55470;BME280;41334;47.872;16.384;2022-08-19T09:19:08;98459.16;;;29.49;32.47
55470;BME280;41334;47.872;16.384;2022-08-19T09:22:12;98476.44;;;30.00;30.90
55470;BME280;41334;47.872;16.384;2022-08-19T09:25:26;98484.28;;;29.56;30.47
55470;BME280;41334;47.872;16.384;2022-08-19T09:28:30;98484.16;;;29.53;30.42
55470;BME280;41334;47.872;16.384;2022-08-19T09:31:32;98492.91;;;29.97;29.79
55470;BME280;41334;47.872;16.384;2022-08-19T09:34:34;98498.00;;;29.65;30.39
55470;BME280;41334;47.872;16.384;2022-08-19T09:37:38;98495.66;;;29.04;31.96
55470;BME280;41334;47.872;16.384;2022-08-19T09:40:40;98484.00;;;29.70;30.03
55470;BME280;41334;47.872;16.384;2022-08-19T09:43:45;98482.53;;;30.39;29.74
55470;BME280;41334;47.872;16.384;2022-08-19T09:46:49;98483.34;;;29.94;30.72
55470;BME280;41334;47.872;16.384;2022-08-19T09:49:50;98483.53;;;29.47;30.75
55470;BME280;41334;47.872;16.384;2022-08-19T09:52:52;98473.47;;;29.84;31.77
55470;BME280;41334;47.872;16.384;2022-08-19T09:55:58;98460.16;;;30.19;30.56
55470;BME280;41334;47.872;16.384;2022-08-19T09:59:01;98465.81;;;30.35;29.32
55470;BME280;41334;47.872;16.384;2022-08-19T10:02:03;98457.25;;;30.16;29.27
55470;BME280;41334;47.872;16.384;2022-08-19T10:05:11;98456.91;;;29.84;30.44
55470;BME280;41334;47.872;16.384;2022-08-19T10:08:42;98489.13;;;29.59;32.19
55470;BME280;41334;47.872;16.384;2022-08-19T10:11:51;98512.09;;;28.92;35.73
55470;BME280;41334;47.872;16.384;2022-08-19T10:14:55;98515.44;;;28.59;36.38
55470;BME280;41334;47.872;16.384;2022-08-19T10:17:57;98541.63;;;27.84;36.51
55470;BME280;41334;47.872;16.384;2022-08-19T10:21:22;98561.56;;;27.98;36.13
55470;BME280;41334;47.872;16.384;2022-08-19T10:24:26;98540.28;;;26.90;36.75
55470;BME280;41334;47.872;16.384;2022-08-19T10:27:29;98525.00;;;26.75;38.16
55470;BME280;41334;47.872;16.384;2022-08-19T10:30:34;98506.47;;;26.89;38.05
55470;BME280;41334;47.872;16.384;2022-08-19T10:33:37;98515.91;;;26.66;37.74
55470;BME280;41334;47.872;16.384;2022-08-19T10:36:55;98519.44;;;27.06;37.96
55470;BME280;41334;47.872;16.384;2022-08-19T10:40:05;98536.38;;;26.91;41.29
55470;BME280;41334;47.872;16.384;2022-08-19T10:43:09;98529.66;;;26.43;44.26
55470;BME280;41334;47.872;16.384;2022-08-19T10:46:14;98522.09;;;26.18;43.30
55470;BME280;41334;47.872;16.384;2022-08-19T10:49:17;98500.34;;;26.07;42.14
55470;BME280;41334;47.872;16.384;2022-08-19T10:52:20;98502.13;;;26.03;42.45
55470;BME280;41334;47.872;16.384;2022-08-19T10:55:39;98504.84;;;26.03;42.33
55470;BME280;41334;47.872;16.384;2022-08-19T10:59:00;98503.78;;;25.91;41.49
55470;BME280;41334;47.872;16.384;2022-08-19T11:02:10;98508.22;;;26.23;40.74
55470;BME280;41334;47.872;16.384;2022-08-19T11:05:14;98506.03;;;27.04;39.34
55470;BME280;41334;47.872;16.384;2022-08-19T11:08:16;98500.16;;;27.54;38.30
55470;BME280;41334;47.872;16.384;2022-08-19T11:11:24;98501.31;;;27.97;37.70
55470;BME280;41334;47.872;16.384;2022-08-19T11:14:26;98496.41;;;28.20;36.77
55470;BME280;41334;47.872;16.384;2022-08-19T11:17:32;98490.03;;;28.45;36.58
55470;BME280;41334;47.872;16.384;2022-08-19T11:20:34;98490.94;;;27.94;36.82
55470;BME280;41334;47.872;16.384;2022-08-19T11:23:36;98490.78;;;27.90;36.39
55470;BME280;41334;47.872;16.384;2022-08-19T11:26:39;98498.03;;;28.76;34.84
55470;BME280;41334;47.872;16.384;2022-08-19T11:29:42;98485.34;;;29.64;34.16
55470;BME280;41334;47.872;16.384;2022-08-19T11:32:44;98467.16;;;29.84;33.74
55470;BME280;41334;47.872;16.384;2022-08-19T11:35:50;98463.66;;;29.75;33.68
55470;BME280;41334;47.872;16.384;2022-08-19T11:38:52;98479.25;;;29.29;33.02
55470;BME280;41334;47.872;16.384;2022-08-19T11:41:55;98479.31;;;28.99;33.53
55470;BME280;41334;47.872;16.384;2022-08-19T11:44:57;98469.25;;;28.56;34.53
55470;BME280;41334;47.872;16.384;2022-08-19T11:47:59;98459.50;;;28.97;34.44
55470;BME280;41334;47.872;16.384;2022-08-19T11:51:05;98456.75;;;28.59;35.29
55470;BME280;41334;47.872;16.384;2022-08-19T11:54:12;98465.22;;;28.54;35.21
55470;BME280;41334;47.872;16.384;2022-08-19T11:57:14;98475.66;;;28.78;35.77
55470;BME280;41334;47.872;16.384;2022-08-19T12:00:18;98477.25;;;29.38;34.13
55470;BME280;41334;47.872;16.384;2022-08-19T12:03:20;98476.44;;;29.37;34.46
55470;BME280;41334;47.872;16.384;2022-08-19T12:06:26;98483.16;;;29.28;34.45
55470;BME280;41334;47.872;16.384;2022-08-19T12:09:30;98471.91;;;29.62;33.36
55470;BME280;41334;47.872;16.384;2022-08-19T12:12:33;98485.09;;;29.06;34.32
55470;BME280;41334;47.872;16.384;2022-08-19T12:15:37;98514.41;;;28.26;35.64
55470;BME280;41334;47.872;16.384;2022-08-19T12:18:39;98515.56;;;27.99;36.34
55470;BME280;41334;47.872;16.384;2022-08-19T12:21:44;98510.81;;;27.30;38.67
55470;BME280;41334;47.872;16.384;2022-08-19T12:24:47;98532.53;;;26.92;40.35
55470;BME280;41334;47.872;16.384;2022-08-19T12:27:49;98544.50;;;26.65;42.50
55470;BME280;41334;47.872;16.384;2022-08-19T12:30:58;98546.88;;;26.26;44.40
55470;BME280;41334;47.872;16.384;2022-08-19T12:34:00;98557.50;;;26.05;45.52
55470;BME280;41334;47.872;16.384;2022-08-19T12:37:04;98547.47;;;25.51;45.00
55470;BME280;41334;47.872;16.384;2022-08-19T12:40:07;98533.31;;;25.21;45.57
55470;BME280;41334;47.872;16.384;2022-08-19T12:43:09;98522.34;;;25.21;47.28
55470;BME280;41334;47.872;16.384;2022-08-19T12:46:13;98504.19;;;25.12;45.91
55470;BME280;41334;47.872;16.384;2022-08-19T12:49:17;98491.13;;;24.95;46.12
55470;BME280;41334;47.872;16.384;2022-08-19T12:52:39;98496.84;;;24.93;46.76
55470;BME280;41334;47.872;16.384;2022-08-19T12:55:43;98502.34;;;24.66;48.31
55470;BME280;41334;47.872;16.384;2022-08-19T12:58:45;98491.47;;;24.88;47.17
55470;BME280;41334;47.872;16.384;2022-08-19T13:01:49;98487.91;;;24.46;49.10
55470;BME280;41334;47.872;16.384;2022-08-19T13:04:51;98471.16;;;24.48;50.52
55470;BME280;41334;47.872;16.384;2022-08-19T13:07:53;98458.56;;;24.00;48.92
55470;BME280;41334;47.872;16.384;2022-08-19T13:11:11;98484.28;;;23.86;50.69
55470;BME280;41334;47.872;16.384;2022-08-19T13:14:13;98473.69;;;23.60;50.75
55470;BME280;41334;47.872;16.384;2022-08-19T13:17:15;98505.06;;;23.68;51.95
55470;BME280;41334;47.872;16.384;2022-08-19T13:20:18;98535.13;;;23.68;51.65
55470;BME280;41334;47.872;16.384;2022-08-19T13:23:20;98514.72;;;23.60;52.21
55470;BME280;41334;47.872;16.384;2022-08-19T13:26:23;98497.69;;;24.01;51.39
55470;BME280;41334;47.872;16.384;2022-08-19T13:29:25;98504.78;;;24.53;50.92
55470;BME280;41334;47.872;16.384;2022-08-19T13:32:45;98491.53;;;24.42;50.36
55470;BME280;41334;47.872;16.384;2022-08-19T13:36:05;98493.22;;;24.70;51.01
55470;BME280;41334;47.872;16.384;2022-08-19T13:39:09;98495.75;;;24.80;48.15
55470;BME280;41334;47.872;16.384;2022-08-19T13:42:11;98491.25;;;24.43;48.35
55470;BME280;41334;47.872;16.384;2022-08-19T13:45:18;98491.69;;;24.64;47.71
55470;BME280;41334;47.872;16.384;2022-08-19T13:48:21;98487.72;;;24.84;47.97
55470;BME280;41334;47.872;16.384;2022-08-19T13:51:23;98488.34;;;25.09;46.23
55470;BME280;41334;47.872;16.384;2022-08-19T13:54:25;98463.00;;;25.39;46.31
55470;BME280;41334;47.872;16.384;2022-08-19T13:57:28;98486.50;;;25.90;46.95
55470;BME280;41334;47.872;16.384;2022-08-19T14:00:34;98480.75;;;25.55;46.52
55470;BME280;41334;47.872;16.384;2022-08-19T14:03:37;98477.53;;;25.98;43.85
55470;BME280;41334;47.872;16.384;2022-08-19T14:06:39;98474.44;;;26.14;40.89
55470;BME280;41334;47.872;16.384;2022-08-19T14:09:41;98466.59;;;26.29;41.49
55470;BME280;41334;47.872;16.384;2022-08-19T14:12:43;98460.22;;;26.51;40.94
55470;BME280;41334;47.872;16.384;2022-08-19T14:15:46;98460.66;;;26.36;42.13
55470;BME280;41334;47.872;16.384;2022-08-19T14:18:48;98451.53;;;26.58;40.86
55470;BME280;41334;47.872;16.384;2022-08-19T14:21:50;98446.31;;;26.17;40.27
55470;BME280;41334;47.872;16.384;2022-08-19T14:24:52;98437.97;;;25.99;40.07
55470;BME280;41334;47.872;16.384;2022-08-19T14:27:54;98434.06;;;26.23;40.09
55470;BME280;41334;47.872;16.384;2022-08-19T14:30:57;98414.09;;;26.31;39.51
55470;BME280;41334;47.872;16.384;2022-08-19T14:33:59;98408.59;;;26.31;39.41
55470;BME280;41334;47.872;16.384;2022-08-19T14:37:01;98410.03;;;26.28;38.39
55470;BME280;41334;47.872;16.384;2022-08-19T14:40:03;98390.41;;;26.13;38.15
55470;BME280;41334;47.872;16.384;2022-08-19T14:43:05;98386.97;;;26.38;37.67
55470;BME280;41334;47.872;16.384;2022-08-19T14:46:07;98389.97;;;26.68;37.24
55470;BME280;41334;47.872;16.384;2022-08-19T14:49:11;98382.91;;;27.01;36.54
55470;BME280;41334;47.872;16.384;2022-08-19T14:52:13;98374.41;;;26.46;37.59
55470;BME280;41334;47.872;16.384;2022-08-19T14:55:17;98360.28;;;26.30;38.11
55470;BME280;41334;47.872;16.384;2022-08-19T14:58:19;98356.72;;;26.29;38.85
55470;BME280;41334;47.872;16.384;2022-08-19T15:01:30;98340.88;;;26.26;39.62
55470;BME280;41334;47.872;16.384;2022-08-19T15:04:32;98333.72;;;25.54;40.50
55470;BME280;41334;47.872;16.384;2022-08-19T15:07:34;98340.34;;;25.53;41.11
55470;BME280;41334;47.872;16.384;2022-08-19T15:10:38;98321.16;;;25.40;40.69
55470;BME280;41334;47.872;16.384;2022-08-19T15:13:41;98331.53;;;25.43;41.19
55470;BME280;41334;47.872;16.384;2022-08-19T15:16:43;98325.22;;;25.20;40.72
55470;BME280;41334;47.872;16.384;2022-08-19T15:19:45;98323.56;;;25.32;40.66
55470;BME280;41334;47.872;16.384;2022-08-19T15:22:47;98330.34;;;25.13;41.15
55470;BME280;41334;47.872;16.384;2022-08-19T15:25:49;98322.00;;;25.18;40.80
55470;BME280;41334;47.872;16.384;2022-08-19T15:28:57;98320.50;;;25.56;40.45
55470;BME280;41334;47.872;16.384;2022-08-19T15:32:00;98315.09;;;25.51;40.12
55470;BME280;41334;47.872;16.384;2022-08-19T15:35:03;98314.81;;;25.53;39.67
55470;BME280;41334;47.872;16.384;2022-08-19T15:38:06;98305.16;;;25.55;40.30
55470;BME280;41334;47.872;16.384;2022-08-19T15:41:21;98311.59;;;25.82;38.88
55470;BME280;41334;47.872;16.384;2022-08-19T15:44:26;98300.84;;;25.94;38.82
55470;BME280;41334;47.872;16.384;2022-08-19T15:47:28;98323.28;;;25.96;38.45
55470;BME280;41334;47.872;16.384;2022-08-19T15:50:35;98323.09;;;26.24;38.25
55470;BME280;41334;47.872;16.384;2022-08-19T15:53:38;98328.16;;;26.48;37.65
55470;BME280;41334;47.872;16.384;2022-08-19T15:56:41;98310.69;;;25.95;38.23
55470;BME280;41334;47.872;16.384;2022-08-19T16:00:01;98314.03;;;26.23;37.58
55470;BME280;41334;47.872;16.384;2022-08-19T16:03:27;98323.56;;;25.86;38.43
55470;BME280;41334;47.872;16.384;2022-08-19T16:06:51;98318.88;;;25.87;38.72
55470;BME280;41334;47.872;16.384;2022-08-19T16:09:53;98320.34;;;25.84;38.03
55470;BME280;41334;47.872;16.384;2022-08-19T16:12:56;98331.69;;;26.31;37.40